createdAt,value
2023-05-15T00:03:13.067Z,99807.88
2023-05-15T00:08:17.086Z,99820.28
2023-05-15T00:13:22.082Z,99817.00
2023-05-15T00:18:26.247Z,99830.56
2023-05-15T00:23:30.520Z,99820.06
2023-05-15T00:28:34.439Z,99823.59
2023-05-15T00:33:38.554Z,99815.06
2023-05-15T00:38:42.482Z,99824.22
2023-05-15T00:43:47.644Z,99825.59
2023-05-15T00:48:52.465Z,99817.22
2023-05-15T00:53:57.405Z,99832.63
2023-05-15T00:59:07.515Z,99825.78
2023-05-15T01:04:12.220Z,99807.28
2023-05-15T01:09:17.063Z,99845.47
2023-05-15T01:14:21.044Z,99850.44
2023-05-15T01:19:25.201Z,99860.25
2023-05-15T01:24:54.241Z,99867.19
2023-05-15T01:30:21.566Z,99856.72
2023-05-15T01:35:35.517Z,99871.22
2023-05-15T01:40:40.227Z,99864.44
2023-05-15T01:45:46.803Z,99868.59
2023-05-15T01:50:55.563Z,99870.09
2023-05-15T01:56:00.964Z,99872.53
2023-05-15T02:01:06.746Z,99889.56
2023-05-15T02:06:13.376Z,99884.50
2023-05-15T02:11:17.495Z,99893.50
2023-05-15T02:16:23.045Z,99898.16
2023-05-15T02:21:27.237Z,99902.16
2023-05-15T02:27:03.814Z,99903.00
2023-05-15T02:32:49.030Z,99908.13
2023-05-15T02:37:57.674Z,99911.94
2023-05-15T02:43:03.654Z,99926.22
2023-05-15T02:48:09.828Z,99910.78
2023-05-15T02:53:15.229Z,99831.47
2023-05-15T02:58:19.564Z,99916.66
2023-05-15T03:03:23.546Z,99913.34
2023-05-15T03:08:27.856Z,99921.25
2023-05-15T03:13:31.757Z,99933.16
2023-05-15T03:18:35.849Z,99938.69
2023-05-15T03:23:39.887Z,99946.44
2023-05-15T03:28:45.631Z,99945.16
2023-05-15T03:33:50.880Z,99930.53
2023-05-15T03:38:54.858Z,99928.56
2023-05-15T03:43:58.871Z,99936.25
2023-05-15T03:49:02.883Z,99934.78
2023-05-15T03:54:07.679Z,99931.03
2023-05-15T03:59:11.833Z,99932.97
2023-05-15T04:04:16.138Z,99946.22
2023-05-15T04:09:20.325Z,99938.75
2023-05-15T04:14:24.175Z,99946.22
2023-05-15T04:19:28.181Z,99945.34
2023-05-15T04:24:32.213Z,99952.66
2023-05-15T04:29:36.244Z,99915.19
2023-05-15T04:34:41.648Z,99892.84
2023-05-15T04:39:45.529Z,99912.50
2023-05-15T04:44:49.635Z,99946.72
2023-05-15T04:49:53.785Z,99947.81
2023-05-15T04:54:57.847Z,99947.50
2023-05-15T05:00:02.224Z,99943.56
2023-05-15T05:05:09.178Z,99942.53
2023-05-15T05:10:14.020Z,99935.28
2023-05-15T05:15:18.226Z,99907.56
2023-05-15T05:20:22.102Z,99937.75
2023-05-15T05:25:26.562Z,99935.78
2023-05-15T05:30:30.702Z,99935.97
2023-05-15T05:35:34.460Z,99930.03
2023-05-15T05:40:39.259Z,99933.09
2023-05-15T05:45:43.266Z,99941.50
2023-05-15T05:50:47.425Z,99932.81
2023-05-15T05:55:51.402Z,99930.00
2023-05-15T06:00:55.731Z,99935.22
2023-05-15T06:06:00.158Z,99926.84
2023-05-15T06:11:04.322Z,99934.88
2023-05-15T06:16:08.458Z,99938.97
2023-05-15T06:21:12.385Z,99880.50
2023-05-15T06:26:16.475Z,99932.38
2023-05-15T06:31:20.690Z,99933.56
2023-05-15T06:36:24.715Z,99939.78
2023-05-15T06:41:28.803Z,99933.53
2023-05-15T06:46:32.716Z,99939.81
2023-05-15T06:51:36.838Z,99930.00
2023-05-15T06:56:40.963Z,99933.06
2023-05-15T07:01:45.136Z,99929.94
2023-05-15T07:06:49.262Z,99935.34
2023-05-15T07:11:53.193Z,99924.66
2023-05-15T07:16:57.451Z,99932.34
2023-05-15T07:22:03.197Z,99928.25
2023-05-15T07:27:07.810Z,99918.81
2023-05-15T07:32:11.855Z,99933.69
2023-05-15T07:37:16.979Z,99932.72
2023-05-15T07:42:22.358Z,99887.31
2023-05-15T07:47:26.228Z,99925.91
2023-05-15T07:52:30.495Z,99891.41
2023-05-15T07:57:34.333Z,99932.00
2023-05-15T08:02:38.772Z,99936.50
2023-05-15T08:07:42.749Z,99922.47
2023-05-15T08:12:48.218Z,99925.63
2023-05-15T08:17:52.200Z,99914.41
2023-05-15T08:22:56.411Z,99919.66
2023-05-15T08:28:00.566Z,99917.97
2023-05-15T08:33:04.786Z,99922.09
2023-05-15T08:38:09.047Z,99932.66
2023-05-15T08:43:19.398Z,99916.78
2023-05-15T08:48:29.091Z,99911.53
2023-05-15T08:53:33.238Z,99921.81
2023-05-15T08:58:37.394Z,99926.59
2023-05-15T09:03:42.200Z,99925.28
2023-05-15T09:08:47.280Z,99912.91
2023-05-15T09:13:51.432Z,99938.31
2023-05-15T09:18:55.387Z,99937.13
2023-05-15T09:24:38.942Z,99927.44
2023-05-15T09:29:43.039Z,99923.28
2023-05-15T09:34:47.476Z,99924.63
2023-05-15T09:39:51.456Z,99915.72
2023-05-15T09:44:55.330Z,99909.94
2023-05-15T09:49:59.496Z,99927.94
2023-05-15T09:55:03.532Z,99919.84
2023-05-15T10:00:12.802Z,99890.47
2023-05-15T10:05:17.613Z,99939.31
2023-05-15T10:10:22.152Z,99939.16
2023-05-15T10:22:07.985Z,99922.66
2023-05-15T10:27:13.155Z,99939.97
2023-05-15T10:32:18.246Z,99942.06
2023-05-15T10:37:24.022Z,99944.00
2023-05-15T10:42:30.503Z,99921.25
2023-05-15T10:47:35.279Z,99940.38
2023-05-15T10:52:40.261Z,99950.91
2023-05-15T10:57:48.277Z,99949.59
2023-05-15T11:02:57.517Z,99946.13
2023-05-15T11:08:19.108Z,99948.91
2023-05-15T11:13:23.102Z,99939.31
2023-05-15T11:18:27.222Z,99949.97
2023-05-15T11:23:40.984Z,99952.25
2023-05-15T11:28:45.319Z,99924.84
2023-05-15T11:33:52.528Z,99940.63
2023-05-15T11:38:57.278Z,99926.66
2023-05-15T11:44:02.479Z,99935.25
2023-05-15T11:49:06.799Z,99947.09
2023-05-15T11:54:14.002Z,99943.94
2023-05-15T11:59:17.876Z,99939.41
2023-05-15T12:04:22.144Z,99930.66
2023-05-15T12:09:28.539Z,99943.00
2023-05-15T12:14:34.318Z,99937.06
2023-05-15T12:19:40.044Z,99924.53
2023-05-15T12:24:43.942Z,99895.84
2023-05-15T12:29:48.218Z,99928.03
2023-05-15T12:34:52.366Z,99908.50
2023-05-15T12:40:05.760Z,99894.06
2023-05-15T12:45:17.800Z,99937.41
2023-05-15T12:50:24.035Z,99950.16
2023-05-15T12:55:33.340Z,99949.75
2023-05-15T13:00:40.245Z,99946.53
2023-05-15T13:05:46.058Z,99941.97
2023-05-15T13:11:01.669Z,99943.72
2023-05-15T13:16:07.479Z,99941.34
2023-05-15T13:21:12.703Z,99940.19
2023-05-15T13:26:16.651Z,99902.38
2023-05-15T13:31:20.906Z,99957.59
2023-05-15T13:36:24.882Z,99927.28
2023-05-15T13:41:29.160Z,99930.66
2023-05-15T13:46:33.161Z,99952.88
2023-05-15T13:51:37.386Z,99951.97
2023-05-15T13:56:41.523Z,99950.25
2023-05-15T14:01:46.370Z,99942.97
2023-05-15T14:06:50.443Z,99955.47
2023-05-15T14:11:54.356Z,99958.16
2023-05-15T14:16:58.470Z,99959.78
2023-05-15T14:22:02.463Z,99948.75
2023-05-15T14:27:06.847Z,99958.47
2023-05-15T14:32:11.057Z,99952.00
2023-05-15T14:37:15.292Z,99883.75
2023-05-15T14:42:21.678Z,99950.22
2023-05-15T14:47:28.663Z,99963.47
2023-05-15T14:52:32.791Z,99954.75
2023-05-15T14:57:36.874Z,99938.56
2023-05-15T15:02:41.147Z,99961.97
2023-05-15T15:08:07.584Z,99955.34
2023-05-15T15:13:14.356Z,99928.16
2023-05-15T15:18:18.801Z,99939.13
2023-05-15T15:23:23.553Z,99943.94
2023-05-15T15:28:30.027Z,99955.44
2023-05-15T15:33:33.978Z,99955.88
2023-05-15T15:38:38.146Z,99943.50
2023-05-15T15:43:42.347Z,99937.59
2023-05-15T15:48:46.264Z,99944.91
2023-05-15T15:53:50.360Z,99915.63
2023-05-15T15:58:54.280Z,99957.88
2023-05-15T16:03:58.560Z,99957.28
2023-05-15T16:09:02.840Z,99964.47
2023-05-15T16:14:06.822Z,99947.75
2023-05-15T16:19:10.960Z,99963.16
2023-05-15T16:24:15.183Z,99961.84
2023-05-15T16:29:19.751Z,99963.22
2023-05-15T16:34:23.767Z,99931.53
2023-05-15T16:39:27.857Z,99963.34
2023-05-15T16:44:33.188Z,99948.34
2023-05-15T16:49:37.192Z,99950.34
2023-05-15T16:54:42.678Z,99967.28
2023-05-15T16:59:46.652Z,99961.09
2023-05-15T17:04:50.623Z,99958.38
2023-05-15T17:09:55.605Z,99954.88
2023-05-15T17:14:59.658Z,99961.56
2023-05-15T17:20:04.643Z,99918.97
2023-05-15T17:25:09.763Z,99971.91
2023-05-15T17:30:13.980Z,99963.91
2023-05-15T17:35:18.266Z,99960.13
2023-05-15T17:40:22.303Z,99967.25
2023-05-15T17:45:27.635Z,99898.25
2023-05-15T17:50:32.044Z,99966.13
2023-05-15T17:55:36.304Z,99967.63
2023-05-15T18:00:40.329Z,99976.44
2023-05-15T18:05:47.589Z,99976.84
2023-05-15T18:10:51.607Z,99911.38
2023-05-15T18:15:55.708Z,99976.97
2023-05-15T18:20:59.892Z,99981.81
2023-05-15T18:26:03.811Z,99954.47
2023-05-15T18:31:08.953Z,99953.44
2023-05-15T18:36:13.040Z,99971.31
2023-05-15T18:41:17.014Z,99985.22
2023-05-15T18:46:21.278Z,99975.66
2023-05-15T18:51:25.151Z,99992.47
2023-05-15T18:56:29.346Z,99993.16
2023-05-15T19:01:33.338Z,99989.19
2023-05-15T19:06:37.507Z,99986.59
2023-05-15T19:11:42.043Z,99987.31
2023-05-15T19:16:46.879Z,99985.94
2023-05-15T19:21:52.844Z,99981.94
2023-05-15T19:26:56.799Z,99981.47
2023-05-15T19:32:02.168Z,99991.84
2023-05-15T19:37:06.526Z,99989.44
2023-05-15T19:42:10.654Z,99986.56
2023-05-15T19:47:14.768Z,99983.59
2023-05-15T19:52:20.598Z,99967.31
2023-05-15T19:57:24.468Z,99974.81
2023-05-15T20:02:28.518Z,99978.16
2023-05-15T20:07:32.675Z,99976.03
2023-05-15T20:12:36.911Z,99969.75
2023-05-15T20:17:42.386Z,99983.34
2023-05-15T20:22:46.489Z,99957.97
2023-05-15T20:27:50.529Z,99986.97
2023-05-15T20:32:54.739Z,99963.56
2023-05-15T20:37:59.186Z,99989.56
2023-05-15T20:43:03.066Z,99906.81
2023-05-15T20:48:09.294Z,99976.97
2023-05-15T20:53:13.951Z,99974.94
2023-05-15T20:58:18.000Z,99980.41
2023-05-15T21:03:21.961Z,99957.81
2023-05-15T21:08:26.048Z,99971.53
2023-05-15T21:13:30.103Z,99967.25
2023-05-15T21:18:34.270Z,99969.28
2023-05-15T21:23:38.530Z,99895.13
2023-05-15T21:28:42.590Z,99963.63
2023-05-15T21:33:46.796Z,99971.38
2023-05-15T21:38:50.811Z,99977.28
2023-05-15T21:43:54.789Z,99903.88
2023-05-15T21:49:00.087Z,99948.09
2023-05-15T21:54:04.926Z,99960.94
2023-05-15T21:59:09.091Z,99958.63
2023-05-15T22:04:13.400Z,99950.03
2023-05-15T22:09:17.557Z,99960.38
2023-05-15T22:14:21.881Z,99956.41
2023-05-15T22:19:32.975Z,99961.56
2023-05-15T22:24:37.899Z,99948.38
2023-05-15T22:29:41.958Z,99956.22
2023-05-15T22:34:45.870Z,99951.97
2023-05-15T22:39:49.994Z,99935.03
2023-05-15T22:44:56.073Z,99933.72
2023-05-15T22:50:00.297Z,99836.97
2023-05-15T22:55:04.359Z,99925.38
2023-05-15T23:00:10.854Z,99902.63
2023-05-15T23:05:15.274Z,99927.78
2023-05-15T23:10:19.425Z,99944.19
2023-05-15T23:15:23.735Z,99913.59
2023-05-15T23:20:28.061Z,99938.53
2023-05-15T23:25:32.721Z,99949.56
2023-05-15T23:30:36.729Z,99899.25
2023-05-15T23:35:41.261Z,99912.19
2023-05-15T23:40:45.171Z,99950.22
2023-05-15T23:45:49.262Z,99950.41
2023-05-15T23:50:53.805Z,99950.50
2023-05-15T23:55:57.800Z,99942.03
